createdAt,value
2023-04-23T00:02:03.352Z,15.58
2023-04-23T00:05:09.376Z,15.58
2023-04-23T00:08:12.798Z,15.52
2023-04-23T00:11:17.278Z,15.51
2023-04-23T00:14:23.399Z,15.53
2023-04-23T00:17:26.260Z,15.55
2023-04-23T00:20:29.029Z,15.54
2023-04-23T00:23:31.710Z,15.53
2023-04-23T00:26:35.740Z,15.55
2023-04-23T00:29:46.356Z,15.51
2023-04-23T00:32:49.090Z,15.54
2023-04-23T00:35:52.271Z,15.44
2023-04-23T00:38:55.041Z,15.46
2023-04-23T00:42:00.374Z,15.43
2023-04-23T00:45:03.945Z,15.40
2023-04-23T00:48:08.035Z,15.37
2023-04-23T00:51:13.030Z,15.36
2023-04-23T00:54:16.109Z,15.35
2023-04-23T00:57:20.286Z,15.30
2023-04-23T01:00:23.371Z,15.29
2023-04-23T01:03:29.859Z,15.25
2023-04-23T01:06:32.623Z,15.06
2023-04-23T01:09:35.500Z,15.17
2023-04-23T01:12:39.662Z,15.15
2023-04-23T01:15:42.710Z,15.17
2023-04-23T01:18:47.366Z,15.14
2023-04-23T01:21:51.441Z,15.14
2023-04-23T01:24:55.937Z,15.12
2023-04-23T01:27:59.464Z,15.17
2023-04-23T01:31:04.121Z,15.11
2023-04-23T01:34:07.778Z,15.07
2023-04-23T01:37:11.372Z,15.01
2023-04-23T01:40:15.777Z,14.97
2023-04-23T01:43:18.664Z,14.96
2023-04-23T01:46:24.868Z,14.92
2023-04-23T01:49:27.735Z,14.86
2023-04-23T01:52:30.406Z,14.80
2023-04-23T01:55:35.745Z,14.67
2023-04-23T01:58:38.868Z,14.79
2023-04-23T02:01:46.640Z,14.81
2023-04-23T02:04:52.900Z,14.83
2023-04-23T02:07:56.270Z,14.87
2023-04-23T02:11:00.587Z,14.93
2023-04-23T02:14:05.444Z,14.96
2023-04-23T02:17:08.226Z,14.95
2023-04-23T02:20:12.127Z,14.93
2023-04-23T02:23:14.823Z,14.92
2023-04-23T02:26:19.601Z,14.93
2023-04-23T02:29:22.302Z,14.87
2023-04-23T02:32:25.071Z,14.86
2023-04-23T02:35:27.889Z,14.89
2023-04-23T02:38:30.553Z,14.87
2023-04-23T02:41:34.698Z,14.85
2023-04-23T02:44:37.365Z,14.84
2023-04-23T02:47:40.386Z,14.85
2023-04-23T02:50:43.048Z,14.83
2023-04-23T02:53:45.807Z,14.89
2023-04-23T02:56:49.925Z,14.72
2023-04-23T02:59:52.755Z,14.67
2023-04-23T03:02:55.754Z,14.62
2023-04-23T03:05:59.459Z,14.63
2023-04-23T03:09:02.312Z,14.62
2023-04-23T03:12:06.639Z,14.62
2023-04-23T03:15:10.293Z,14.63
2023-04-23T03:18:12.939Z,14.63
2023-04-23T03:21:15.802Z,14.63
2023-04-23T03:24:19.049Z,14.65
2023-04-23T03:27:23.012Z,14.61
2023-04-23T03:30:25.962Z,14.64
2023-04-23T03:33:28.641Z,14.54
2023-04-23T03:36:32.294Z,14.46
2023-04-23T03:39:34.932Z,14.46
2023-04-23T03:42:39.068Z,14.41
2023-04-23T03:45:41.740Z,14.37
2023-04-23T03:48:44.395Z,14.34
2023-04-23T03:51:47.029Z,14.36
2023-04-23T03:54:49.683Z,14.36
2023-04-23T03:57:53.694Z,14.36
2023-04-23T04:00:56.538Z,14.46
2023-04-23T04:03:59.611Z,14.35
2023-04-23T04:07:03.092Z,14.26
2023-04-23T04:10:07.852Z,14.28
2023-04-23T04:13:11.920Z,14.21
2023-04-23T04:16:14.632Z,14.21
2023-04-23T04:19:17.331Z,14.08
2023-04-23T04:22:20.023Z,14.22
2023-04-23T04:25:24.167Z,14.20
2023-04-23T04:28:28.527Z,14.21
2023-04-23T04:31:31.387Z,14.12
2023-04-23T04:34:34.068Z,14.20
2023-04-23T04:37:36.996Z,14.13
2023-04-23T04:40:39.947Z,14.08
2023-04-23T04:43:45.304Z,14.10
2023-04-23T04:46:48.088Z,14.10
2023-04-23T04:49:51.544Z,14.11
2023-04-23T04:52:54.180Z,14.13
2023-04-23T04:55:56.869Z,14.18
2023-04-23T04:59:00.919Z,14.20
2023-04-23T05:02:03.627Z,14.21
2023-04-23T05:05:08.121Z,14.23
2023-04-23T05:08:10.985Z,14.22
2023-04-23T05:11:13.710Z,14.21
2023-04-23T05:14:17.718Z,14.20
2023-04-23T05:17:20.495Z,14.16
2023-04-23T05:20:23.769Z,14.12
2023-04-23T05:23:26.703Z,14.08
2023-04-23T05:26:29.781Z,14.09
2023-04-23T05:29:33.981Z,14.07
2023-04-23T05:32:37.182Z,14.09
2023-04-23T05:35:39.975Z,14.20
2023-04-23T05:38:42.660Z,14.33
2023-04-23T05:41:45.365Z,14.51
2023-04-23T05:44:49.442Z,14.66
2023-04-23T05:47:52.703Z,14.84
2023-04-23T05:50:55.553Z,14.98
2023-04-23T05:53:58.538Z,15.14
2023-04-23T05:57:01.971Z,15.32
2023-04-23T06:00:09.835Z,15.44
2023-04-23T06:03:12.876Z,15.70
2023-04-23T06:06:15.746Z,15.90
2023-04-23T06:09:18.487Z,16.33
2023-04-23T06:12:21.239Z,16.52
2023-04-23T06:15:27.174Z,16.67
2023-04-23T06:18:30.026Z,16.94
2023-04-23T06:21:32.762Z,16.95
2023-04-23T06:24:36.527Z,16.85
2023-04-23T06:27:39.491Z,16.70
2023-04-23T06:30:43.502Z,16.57
2023-04-23T06:33:46.253Z,16.47
2023-04-23T06:36:49.018Z,16.41
2023-04-23T06:39:51.701Z,16.41
2023-04-23T06:42:54.388Z,16.46
2023-04-23T06:45:58.603Z,16.52
2023-04-23T06:49:01.273Z,16.60
2023-04-23T06:52:03.933Z,16.66
2023-04-23T06:55:07.605Z,16.84
2023-04-23T06:58:11.891Z,16.94
2023-04-23T07:01:16.838Z,16.96
2023-04-23T07:04:19.504Z,16.95
2023-04-23T07:07:22.182Z,16.87
2023-04-23T07:10:24.932Z,16.82
2023-04-23T07:13:27.937Z,17.32
2023-04-23T07:16:33.945Z,18.21
2023-04-23T07:19:36.728Z,18.48
2023-04-23T07:22:39.475Z,18.58
2023-04-23T07:25:42.198Z,18.55
2023-04-23T07:28:47.329Z,18.26
2023-04-23T07:31:51.475Z,18.05
2023-04-23T07:34:54.183Z,18.14
2023-04-23T07:37:57.971Z,17.99
2023-04-23T07:41:00.721Z,17.61
2023-04-23T07:44:03.802Z,17.29
2023-04-23T07:47:07.851Z,17.09
2023-04-23T07:50:10.923Z,17.01
2023-04-23T07:53:13.567Z,17.04
2023-04-23T07:56:16.259Z,17.07
2023-04-23T07:59:19.044Z,17.13
2023-04-23T08:02:26.257Z,17.42
2023-04-23T08:05:29.680Z,18.03
2023-04-23T08:08:32.454Z,18.36
2023-04-23T08:11:35.069Z,18.34
2023-04-23T08:14:37.854Z,18.27
2023-04-23T08:17:41.864Z,18.23
2023-04-23T08:20:44.678Z,18.19
2023-04-23T08:23:47.535Z,18.21
2023-04-23T08:26:50.301Z,18.30
2023-04-23T08:29:53.117Z,18.37
2023-04-23T08:32:58.106Z,18.34
2023-04-23T08:36:02.250Z,18.36
2023-04-23T08:39:05.717Z,18.49
2023-04-23T08:42:12.694Z,18.54
2023-04-23T08:45:15.702Z,18.77
2023-04-23T08:48:20.901Z,18.86
2023-04-23T08:51:27.140Z,18.94
2023-04-23T08:54:32.600Z,19.06
2023-04-23T08:57:35.725Z,19.17
2023-04-23T09:00:39.739Z,19.25
2023-04-23T09:03:44.025Z,19.20
2023-04-23T09:06:46.976Z,19.23
2023-04-23T09:09:49.761Z,19.31
2023-04-23T09:12:52.704Z,19.44
2023-04-23T09:15:55.353Z,19.45
2023-04-23T09:19:00.719Z,19.41
2023-04-23T09:22:03.774Z,19.47
2023-04-23T09:25:07.877Z,19.39
2023-04-23T09:28:11.291Z,19.37
2023-04-23T09:31:14.267Z,19.36
2023-04-23T09:34:19.338Z,19.32
2023-04-23T09:37:26.588Z,19.23
2023-04-23T09:40:29.334Z,19.13
2023-04-23T09:43:32.014Z,19.01
2023-04-23T09:46:36.435Z,18.99
2023-04-23T09:49:51.767Z,19.13
2023-04-23T09:52:57.078Z,19.26
2023-04-23T09:55:59.777Z,19.29
2023-04-23T09:59:02.419Z,19.21
2023-04-23T10:02:07.923Z,19.11
2023-04-23T10:05:24.363Z,19.01
2023-04-23T10:08:28.898Z,18.94
2023-04-23T10:11:31.766Z,19.02
2023-04-23T10:14:35.013Z,19.18
2023-04-23T10:17:38.997Z,19.35
2023-04-23T10:20:43.882Z,19.37
2023-04-23T10:23:48.704Z,19.56
2023-04-23T10:26:53.980Z,19.67
2023-04-23T10:29:58.791Z,19.78
2023-04-23T10:33:03.247Z,20.18
2023-04-23T10:36:08.480Z,20.57
2023-04-23T10:39:12.291Z,20.72
2023-04-23T10:42:15.576Z,20.77
2023-04-23T10:48:28.849Z,20.94
2023-04-23T10:55:00.123Z,21.07
2023-04-23T10:58:05.339Z,21.06
2023-04-23T11:01:08.034Z,21.16
2023-04-23T11:04:24.528Z,21.19
2023-04-23T11:07:32.621Z,21.32
2023-04-23T11:10:36.121Z,21.47
2023-04-23T11:13:52.776Z,21.62
2023-04-23T11:16:55.529Z,21.75
2023-04-23T11:20:14.026Z,21.86
2023-04-23T11:23:33.363Z,21.98
2023-04-23T11:26:37.509Z,22.18
2023-04-23T11:29:42.415Z,22.49
2023-04-23T11:32:47.837Z,22.63
2023-04-23T11:35:51.333Z,22.66
2023-04-23T11:38:58.358Z,22.82
2023-04-23T11:42:03.476Z,23.02
2023-04-23T11:45:07.420Z,23.14
2023-04-23T11:48:10.280Z,23.13
2023-04-23T11:51:13.027Z,23.03
2023-04-23T11:54:17.218Z,22.92
2023-04-23T11:57:19.885Z,22.88
2023-04-23T12:00:24.948Z,22.96
2023-04-23T12:03:29.339Z,23.05
2023-04-23T12:06:32.070Z,23.23
2023-04-23T12:09:38.083Z,23.29
2023-04-23T12:12:40.757Z,23.28
2023-04-23T12:15:48.407Z,23.37
2023-04-23T12:18:54.906Z,23.56
2023-04-23T12:21:59.830Z,23.62
2023-04-23T12:25:09.467Z,23.69
2023-04-23T12:28:12.205Z,23.71
2023-04-23T12:31:20.112Z,23.63
2023-04-23T12:34:22.894Z,23.62
2023-04-23T12:37:27.461Z,23.62
2023-04-23T12:40:31.653Z,23.64
2023-04-23T12:43:34.382Z,23.73
2023-04-23T12:46:37.060Z,23.92
2023-04-23T12:49:41.388Z,24.09
2023-04-23T12:52:44.299Z,24.24
2023-04-23T12:55:50.180Z,24.42
2023-04-23T12:58:53.001Z,24.52
2023-04-23T13:01:56.413Z,24.39
2023-04-23T13:05:01.178Z,24.18
2023-04-23T13:08:04.333Z,24.00
2023-04-23T13:11:08.322Z,23.87
2023-04-23T13:14:11.083Z,23.91
2023-04-23T13:17:13.712Z,23.91
2023-04-23T13:20:16.919Z,23.88
2023-04-23T13:23:19.609Z,23.96
2023-04-23T13:26:24.107Z,24.01
2023-04-23T13:29:27.395Z,24.09
2023-04-23T13:32:32.310Z,24.00
2023-04-23T13:35:37.583Z,23.90
2023-04-23T13:38:40.595Z,23.98
2023-04-23T13:41:45.665Z,23.87
2023-04-23T13:44:49.349Z,23.69
2023-04-23T13:47:52.094Z,23.81
2023-04-23T13:50:54.787Z,23.88
2023-04-23T13:53:58.254Z,23.79
2023-04-23T13:57:03.987Z,23.89
2023-04-23T14:00:08.312Z,24.20
2023-04-23T14:03:11.235Z,24.09
2023-04-23T14:06:14.019Z,24.01
2023-04-23T14:09:16.690Z,23.75
2023-04-23T14:12:20.967Z,23.59
2023-04-23T14:15:24.110Z,23.44
2023-04-23T14:18:26.799Z,23.24
2023-04-23T14:21:29.552Z,23.20
2023-04-23T14:24:35.620Z,23.29
2023-04-23T14:27:46.220Z,23.37
2023-04-23T14:30:49.030Z,23.44
2023-04-23T14:33:52.056Z,23.40
2023-04-23T14:36:54.891Z,23.41
2023-04-23T14:39:57.809Z,23.33
2023-04-23T14:43:14.531Z,23.09
2023-04-23T14:46:18.419Z,23.18
2023-04-23T14:49:21.775Z,23.16
2023-04-23T14:52:24.551Z,23.19
2023-04-23T14:55:28.052Z,23.30
2023-04-23T14:58:32.218Z,23.39
2023-04-23T15:01:35.087Z,23.48
2023-04-23T15:04:38.029Z,23.55
2023-04-23T15:07:41.309Z,23.61
2023-04-23T15:10:44.806Z,23.62
2023-04-23T15:13:58.313Z,23.61
2023-04-23T15:17:01.187Z,23.54
2023-04-23T15:20:04.365Z,23.45
2023-04-23T15:23:07.122Z,23.40
2023-04-23T15:26:09.868Z,23.29
2023-04-23T15:29:14.174Z,23.18
2023-04-23T15:32:17.084Z,23.13
2023-04-23T15:35:20.056Z,23.11
2023-04-23T15:38:23.123Z,23.09
2023-04-23T15:41:27.143Z,23.05
2023-04-23T15:44:31.170Z,22.99
2023-04-23T15:47:33.826Z,22.92
2023-04-23T15:50:36.744Z,22.81
2023-04-23T15:53:39.559Z,22.68
2023-04-23T15:56:42.236Z,22.64
2023-04-23T15:59:46.253Z,22.56
2023-04-23T16:02:49.466Z,22.51
2023-04-23T16:05:52.350Z,22.47
2023-04-23T16:08:55.127Z,22.41
2023-04-23T16:11:57.801Z,22.44
2023-04-23T16:15:02.157Z,22.53
2023-04-23T16:18:06.303Z,22.68
2023-04-23T16:21:09.149Z,22.77
2023-04-23T16:24:11.831Z,22.78
2023-04-23T16:27:14.847Z,22.76
2023-04-23T16:30:19.035Z,22.70
2023-04-23T16:33:23.978Z,22.59
2023-04-23T16:36:26.887Z,22.48
2023-04-23T16:39:29.546Z,22.41
2023-04-23T16:42:32.342Z,22.28
2023-04-23T16:45:37.983Z,22.15
2023-04-23T16:48:42.239Z,22.03
2023-04-23T16:51:45.084Z,21.91
2023-04-23T16:54:49.342Z,21.77
2023-04-23T16:57:52.166Z,21.67
2023-04-23T17:00:56.647Z,21.57
2023-04-23T17:03:59.538Z,21.44
2023-04-23T17:07:02.467Z,21.29
2023-04-23T17:10:05.905Z,21.18
2023-04-23T17:13:08.693Z,21.07
2023-04-23T17:16:12.891Z,20.97
2023-04-23T17:19:16.142Z,20.85
2023-04-23T17:22:18.952Z,20.69
2023-04-23T17:25:21.676Z,20.23
2023-04-23T17:28:24.464Z,19.57
2023-04-23T17:31:28.599Z,18.80
2023-04-23T17:34:31.284Z,18.22
2023-04-23T17:37:34.279Z,17.92
2023-04-23T17:40:37.485Z,17.49
2023-04-23T17:43:41.696Z,17.23
2023-04-23T17:46:45.707Z,17.12
2023-04-23T17:49:48.408Z,17.09
2023-04-23T17:52:52.308Z,17.07
2023-04-23T17:56:00.186Z,16.88
2023-04-23T17:59:03.764Z,16.30
2023-04-23T18:02:08.057Z,16.02
2023-04-23T18:05:12.820Z,16.01
2023-04-23T18:08:17.204Z,15.98
2023-04-23T18:11:20.051Z,15.91
2023-04-23T18:14:22.845Z,15.65
2023-04-23T18:17:26.975Z,15.77
2023-04-23T18:20:30.314Z,15.84
2023-04-23T18:23:33.036Z,15.80
2023-04-23T18:26:36.027Z,15.76
2023-04-23T18:29:38.697Z,15.67
2023-04-23T18:32:48.465Z,15.50
2023-04-23T18:35:53.225Z,15.34
2023-04-23T18:38:56.278Z,15.31
2023-04-23T18:41:59.226Z,15.17
2023-04-23T18:45:04.449Z,15.02
2023-04-23T18:48:39.060Z,14.82
2023-04-23T18:51:45.728Z,14.81
2023-04-23T18:54:48.386Z,14.80
2023-04-23T18:57:51.056Z,14.84
2023-04-23T19:00:53.771Z,14.79
2023-04-23T19:03:57.993Z,14.76
2023-04-23T19:07:01.201Z,14.75
2023-04-23T19:10:08.576Z,14.72
2023-04-23T19:13:11.481Z,14.66
2023-04-23T19:16:16.317Z,14.66
2023-04-23T19:19:20.430Z,14.63
2023-04-23T19:22:25.701Z,14.59
2023-04-23T19:25:28.418Z,14.63
2023-04-23T19:28:31.275Z,14.57
2023-04-23T19:31:34.123Z,14.57
2023-04-23T19:34:38.168Z,14.60
2023-04-23T19:37:40.915Z,14.61
2023-04-23T19:40:44.115Z,14.51
2023-04-23T19:43:47.234Z,14.45
2023-04-23T19:46:51.128Z,14.30
2023-04-23T19:49:56.251Z,14.18
2023-04-23T19:52:59.008Z,14.03
2023-04-23T19:56:02.161Z,13.98
2023-04-23T19:59:06.956Z,13.94
2023-04-23T20:02:10.319Z,13.92
2023-04-23T20:05:14.452Z,13.88
2023-04-23T20:08:26.251Z,13.87
2023-04-23T20:11:29.166Z,13.85
2023-04-23T20:14:32.758Z,13.83
2023-04-23T20:17:36.212Z,13.87
2023-04-23T20:20:41.961Z,13.94
2023-04-23T20:23:44.684Z,13.98
2023-04-23T20:26:47.390Z,13.99
2023-04-23T20:29:50.098Z,13.82
2023-04-23T20:32:52.885Z,13.65
2023-04-23T20:35:58.748Z,13.63
2023-04-23T20:39:04.968Z,13.43
2023-04-23T20:42:08.790Z,13.30
2023-04-23T20:45:14.325Z,13.38
2023-04-23T20:48:17.072Z,13.38
2023-04-23T20:51:21.452Z,13.36
2023-04-23T20:54:24.122Z,13.64
2023-04-23T20:57:29.085Z,13.65
2023-04-23T21:00:31.806Z,13.52
2023-04-23T21:03:36.908Z,13.54
2023-04-23T21:06:41.228Z,13.37
2023-04-23T21:09:44.466Z,13.29
2023-04-23T21:12:47.775Z,13.20
2023-04-23T21:15:51.342Z,13.18
2023-04-23T21:18:54.257Z,13.21
2023-04-23T21:21:58.328Z,13.36
2023-04-23T21:25:01.094Z,13.27
2023-04-23T21:28:04.460Z,13.40
2023-04-23T21:31:12.902Z,13.27
2023-04-23T21:34:15.894Z,13.30
2023-04-23T21:37:19.917Z,13.31
2023-04-23T21:40:23.286Z,13.29
2023-04-23T21:43:26.216Z,13.21
2023-04-23T21:46:30.335Z,13.18
2023-04-23T21:49:33.195Z,13.06
2023-04-23T21:52:37.840Z,13.10
2023-04-23T21:55:40.646Z,13.02
2023-04-23T21:58:44.364Z,12.95
2023-04-23T22:01:47.336Z,12.87
2023-04-23T22:04:50.375Z,12.96
2023-04-23T22:07:55.455Z,12.84
2023-04-23T22:10:58.380Z,12.83
2023-04-23T22:14:02.179Z,12.84
2023-04-23T22:17:05.073Z,12.87
2023-04-23T22:20:09.692Z,12.78
2023-04-23T22:23:13.715Z,12.76
2023-04-23T22:26:16.428Z,12.93
2023-04-23T22:29:19.131Z,12.89
2023-04-23T22:32:21.749Z,12.82
2023-04-23T22:35:24.606Z,12.83
2023-04-23T22:38:28.656Z,12.81
2023-04-23T22:41:33.132Z,12.82
2023-04-23T22:44:36.978Z,12.73
2023-04-23T22:47:39.750Z,12.70
2023-04-23T22:50:42.723Z,12.70
2023-04-23T22:53:46.726Z,12.68
2023-04-23T22:56:49.378Z,12.68
2023-04-23T22:59:52.195Z,12.72
2023-04-23T23:02:54.937Z,12.73
2023-04-23T23:05:57.637Z,12.74
2023-04-23T23:09:02.163Z,12.74
2023-04-23T23:12:05.646Z,12.71
2023-04-23T23:15:09.529Z,12.69
2023-04-23T23:18:12.340Z,12.67
2023-04-23T23:21:15.914Z,12.66
2023-04-23T23:24:20.036Z,12.66
2023-04-23T23:27:22.719Z,12.66
2023-04-23T23:30:25.972Z,12.61
2023-04-23T23:33:29.401Z,12.59
2023-04-23T23:36:32.989Z,12.56
2023-04-23T23:39:36.996Z,12.54
2023-04-23T23:42:39.659Z,12.55
2023-04-23T23:45:42.350Z,12.56
2023-04-23T23:48:45.308Z,12.53
2023-04-23T23:51:48.443Z,12.49
2023-04-23T23:54:52.452Z,12.50
2023-04-23T23:57:55.460Z,12.52
